Time;durP1;ratioP1;P1;durP2;ratioP2;P2;SDS_P1;SDS_P2;PMS_P1;PMS_P2;Temp;Humidity;BMP_temperature;BMP_pressure;BME280_temperature;BME280_humidity;BME280_pressure;Samples;Min_cycle;Max_cycle;Signal;HPM_P1;HPM_P2
2022/12/02 00:02:08;;;;;;;;;;;1.60;99.90;;;;;;2603754;54;20740;31
2022/12/02 00:04:41;;;;;;;;;;;1.60;99.90;;;;;;2621816;47;20807;31
2022/12/02 00:07:16;;;;;;;;;;;1.50;99.90;;;;;;2603589;54;19957;31
2022/12/02 00:09:50;;;;;;;;;;;1.50;99.90;;;;;;2622137;46;20801;31
2022/12/02 00:12:24;;;;;;;;;;;1.50;99.90;;;;;;2603665;54;19946;31
2022/12/02 00:15:02;;;;;;;;;;;1.50;99.90;;;;;;2622233;46;19993;31
2022/12/02 00:17:36;;;;;;;;;;;1.50;99.90;;;;;;2603519;54;20746;31
2022/12/02 00:20:12;;;;;;;;;;;1.50;99.90;;;;;;2603862;54;19941;31
2022/12/02 00:22:46;;;;;;;;;;;1.50;99.90;;;;;;2603721;54;20808;31
2022/12/02 00:25:21;;;;;;;;;;;1.50;99.90;;;;;;2603467;54;20776;31
2022/12/02 00:27:55;;;;;;;;;;;1.50;99.90;;;;;;2604731;46;19935;31
2022/12/02 00:30:31;;;;;;;;;;;1.50;99.90;;;;;;2603437;54;20685;31
2022/12/02 00:33:08;;;;;;;;;;;1.50;99.90;;;;;;2603545;54;19934;31
2022/12/02 00:35:45;;;;;;;;;;;1.50;99.90;;;;;;2621991;46;19934;31
2022/12/02 00:38:22;;;;;;;;;;;1.50;99.90;;;;;;2603420;54;20763;31
2022/12/02 00:40:56;;;;;;;;;;;1.50;99.90;;;;;;2618127;46;19934;31
2022/12/02 00:46:34;;;;;;;;;;;1.40;99.90;;;;;;2603451;54;20768;31
2022/12/02 00:49:07;;;;;;;;;;;1.40;99.90;;;;;;2603509;54;20790;31
2022/12/02 00:51:40;;;;;;;;;;;1.50;99.90;;;;;;2603921;46;19935;31
2022/12/02 00:54:15;;;;;;;;;;;1.50;99.90;;;;;;2602811;54;20832;31
2022/12/02 00:56:50;;;;;;;;;;;1.50;99.90;;;;;;2622204;46;19934;31
2022/12/02 00:59:24;;;;;;;;;;;1.50;99.90;;;;;;2622215;46;19934;31
2022/12/02 01:02:01;;;;;;;;;;;1.50;99.90;;;;;;2603619;54;19941;31
2022/12/02 01:04:35;;;;;;;;;;;1.50;99.90;;;;;;2605608;46;19989;31
2022/12/02 01:07:09;;;;;;;;;;;1.50;99.90;;;;;;2603416;54;19996;31
2022/12/02 01:09:44;;;;;;;;;;;1.50;99.90;;;;;;2603557;54;20750;31
2022/12/02 01:12:18;;;;;;;;;;;1.50;99.90;;;;;;2621993;46;19957;31
2022/12/02 01:14:54;;;;;;;;;;;1.40;99.90;;;;;;2603057;54;19964;31
2022/12/02 01:17:31;;;;;;;;;;;1.50;99.90;;;;;;2621766;46;19946;31
2022/12/02 01:20:11;;;;;;;;;;;1.40;99.90;;;;;;2603376;54;20803;31
2022/12/02 01:22:44;;;;;;;;;;;1.40;99.90;;;;;;2603254;54;20737;31
2022/12/02 01:25:18;;;;;;;;;;;1.40;99.90;;;;;;2603203;54;20714;31
2022/12/02 01:27:52;;;;;;;;;;;1.40;99.90;;;;;;2603502;54;19934;31
2022/12/02 01:30:27;;;;;;;;;;;1.40;99.90;;;;;;2622254;47;20011;31
2022/12/02 01:33:02;;;;;;;;;;;1.40;99.90;;;;;;2603226;54;20702;31
2022/12/02 01:35:39;;;;;;;;;;;1.40;99.90;;;;;;2603239;54;19961;31
2022/12/02 01:38:13;;;;;;;;;;;1.40;99.90;;;;;;2603356;54;19935;31
2022/12/02 01:40:48;;;;;;;;;;;1.30;99.90;;;;;;2603080;54;20063;31
2022/12/02 01:43:22;;;;;;;;;;;1.30;99.90;;;;;;2603289;54;20724;31
2022/12/02 01:45:56;;;;;;;;;;;1.30;99.90;;;;;;2621752;47;19941;31
2022/12/02 01:48:31;;;;;;;;;;;1.30;99.90;;;;;;2609562;39;20956;31
2022/12/02 01:51:08;;;;;;;;;;;1.30;99.90;;;;;;2603071;54;19942;31
2022/12/02 01:53:43;;;;;;;;;;;1.20;99.90;;;;;;2603130;54;20775;31
2022/12/02 01:56:15;;;;;;;;;;;1.20;99.90;;;;;;2607912;47;19938;31
2022/12/02 01:58:48;;;;;;;;;;;1.20;99.90;;;;;;2603161;54;20709;31
2022/12/02 02:01:26;;;;;;;;;;;1.20;99.90;;;;;;2603203;54;20705;31
2022/12/02 02:04:00;;;;;;;;;;;1.20;99.90;;;;;;2603283;54;19941;31
2022/12/02 02:06:38;;;;;;;;;;;1.20;99.90;;;;;;2621699;47;19934;31
2022/12/02 02:09:11;;;;;;;;;;;1.20;99.90;;;;;;2621759;47;19935;31
2022/12/02 02:11:46;;;;;;;;;;;1.20;99.90;;;;;;2620761;47;19941;31
2022/12/02 02:14:20;;;;;;;;;;;1.20;99.90;;;;;;2603025;54;19934;31
2022/12/02 02:16:55;;;;;;;;;;;1.20;99.90;;;;;;2602333;47;19950;31
2022/12/02 02:19:30;;;;;;;;;;;1.20;99.90;;;;;;2603175;54;19981;31
2022/12/02 02:22:07;;;;;;;;;;;1.20;99.90;;;;;;2621738;47;20809;31
2022/12/02 02:24:44;;;;;;;;;;;1.20;99.90;;;;;;2603222;54;20791;31
2022/12/02 02:27:18;;;;;;;;;;;1.20;99.90;;;;;;2604107;47;20001;31
2022/12/02 02:29:53;;;;;;;;;;;1.20;99.90;;;;;;2622406;46;20006;31
2022/12/02 02:32:27;;;;;;;;;;;1.10;99.90;;;;;;2603958;46;19935;31
2022/12/02 02:35:00;;;;;;;;;;;1.20;99.90;;;;;;2603867;54;19960;31
2022/12/02 02:37:35;;;;;;;;;;;1.20;99.90;;;;;;2603747;54;20012;31
2022/12/02 02:40:15;;;;;;;;;;;1.10;99.90;;;;;;2604704;46;19939;31
2022/12/02 02:42:51;;;;;;;;;;;1.10;99.90;;;;;;2622340;46;19947;31
2022/12/02 02:45:27;;;;;;;;;;;1.10;99.90;;;;;;2622392;46;19993;31
2022/12/02 02:48:03;;;;;;;;;;;1.10;99.90;;;;;;2622249;46;19934;31
2022/12/02 02:50:39;;;;;;;;;;;1.10;99.90;;;;;;2608098;46;19941;31
2022/12/02 02:53:14;;;;;;;;;;;1.10;99.90;;;;;;2603714;54;20788;31
2022/12/02 02:55:51;;;;;;;;;;;1.10;99.90;;;;;;2622428;46;19942;31
2022/12/02 02:58:30;;;;;;;;;;;1.10;99.90;;;;;;2621956;46;19934;31
2022/12/02 03:01:02;;;;;;;;;;;1.10;99.90;;;;;;2622106;46;20801;31
2022/12/02 03:03:38;;;;;;;;;;;1.10;99.90;;;;;;2603840;54;20785;31
2022/12/02 03:06:12;;;;;;;;;;;1.10;99.90;;;;;;2603833;54;19935;31
2022/12/02 03:08:48;;;;;;;;;;;1.10;99.90;;;;;;2622359;46;19934;31
2022/12/02 03:11:24;;;;;;;;;;;1.10;99.90;;;;;;2603943;54;19935;31
2022/12/02 03:14:00;;;;;;;;;;;1.10;99.90;;;;;;2609626;46;20833;31
2022/12/02 03:16:33;;;;;;;;;;;1.10;99.90;;;;;;2603689;54;20019;31
2022/12/02 03:19:07;;;;;;;;;;;1.10;99.90;;;;;;2603675;54;19993;31
2022/12/02 03:21:41;;;;;;;;;;;1.10;99.90;;;;;;2603776;54;19938;31
2022/12/02 03:24:15;;;;;;;;;;;1.10;99.90;;;;;;2603903;54;19945;31
2022/12/02 03:26:51;;;;;;;;;;;1.10;99.90;;;;;;2622287;46;20874;31
2022/12/02 03:29:28;;;;;;;;;;;1.00;99.90;;;;;;2604776;46;20779;31
2022/12/02 03:32:03;;;;;;;;;;;1.00;99.90;;;;;;2603638;54;19935;31
2022/12/02 03:34:37;;;;;;;;;;;1.00;99.90;;;;;;2602942;54;19934;31
2022/12/02 03:37:11;;;;;;;;;;;1.00;99.90;;;;;;2621951;46;19941;31
2022/12/02 03:39:46;;;;;;;;;;;1.00;99.90;;;;;;2603486;54;19935;31
2022/12/02 03:42:23;;;;;;;;;;;1.00;99.90;;;;;;2604015;54;20725;31
2022/12/02 03:44:57;;;;;;;;;;;1.00;99.90;;;;;;2603704;54;19934;31
2022/12/02 03:47:31;;;;;;;;;;;1.00;99.90;;;;;;2622408;46;19939;31
2022/12/02 03:50:06;;;;;;;;;;;1.00;99.90;;;;;;2603533;54;20762;31
2022/12/02 03:52:40;;;;;;;;;;;1.00;99.90;;;;;;2603645;54;19989;31
2022/12/02 03:55:14;;;;;;;;;;;1.00;99.90;;;;;;2603592;54;19935;31
2022/12/02 03:57:51;;;;;;;;;;;0.90;99.90;;;;;;2622071;46;19939;31
2022/12/02 04:00:25;;;;;;;;;;;0.90;99.90;;;;;;2603858;54;21042;31
2022/12/02 04:02:59;;;;;;;;;;;0.90;99.90;;;;;;2622141;46;20792;31
2022/12/02 04:05:34;;;;;;;;;;;1.00;99.90;;;;;;2603636;54;19989;31
2022/12/02 04:08:08;;;;;;;;;;;1.00;99.90;;;;;;2604767;46;19942;31
2022/12/02 04:10:43;;;;;;;;;;;1.00;99.90;;;;;;2602636;54;20869;31
2022/12/02 04:13:20;;;;;;;;;;;1.00;99.90;;;;;;2602942;54;20747;31
2022/12/02 04:15:54;;;;;;;;;;;1.00;99.90;;;;;;2603784;54;19935;31
2022/12/02 04:18:28;;;;;;;;;;;1.00;99.90;;;;;;2603449;54;19941;31
2022/12/02 04:21:01;;;;;;;;;;;1.00;99.90;;;;;;2609353;46;20018;31
2022/12/02 04:23:34;;;;;;;;;;;0.90;99.90;;;;;;2628633;39;21110;31
2022/12/02 04:26:09;;;;;;;;;;;0.90;99.90;;;;;;2608826;46;19950;31
2022/12/02 04:28:46;;;;;;;;;;;0.90;99.90;;;;;;2617971;46;19939;31
2022/12/02 04:31:21;;;;;;;;;;;0.90;99.90;;;;;;2621946;46;20014;31
2022/12/02 04:33:56;;;;;;;;;;;1.00;99.90;;;;;;2621946;46;19942;31
2022/12/02 04:36:30;;;;;;;;;;;1.00;99.90;;;;;;2603429;54;19942;31
2022/12/02 04:39:04;;;;;;;;;;;1.00;99.90;;;;;;2603545;54;19935;31
2022/12/02 04:41:39;;;;;;;;;;;1.00;99.90;;;;;;2609014;46;20764;31
2022/12/02 04:44:16;;;;;;;;;;;1.00;99.90;;;;;;2622113;46;20730;31
2022/12/02 04:46:51;;;;;;;;;;;1.00;99.90;;;;;;2603518;54;19979;31
2022/12/02 04:49:26;;;;;;;;;;;1.00;99.90;;;;;;2621842;46;19941;31
2022/12/02 04:52:00;;;;;;;;;;;1.00;99.90;;;;;;2602889;54;19942;31
2022/12/02 04:54:34;;;;;;;;;;;0.90;99.90;;;;;;2620820;46;20682;31
2022/12/02 04:57:09;;;;;;;;;;;0.90;99.90;;;;;;2622156;46;19934;31
2022/12/02 04:59:46;;;;;;;;;;;0.90;99.90;;;;;;2613406;46;19942;31
2022/12/02 05:02:21;;;;;;;;;;;0.90;99.90;;;;;;2603644;54;20701;31
2022/12/02 05:04:56;;;;;;;;;;;0.90;99.90;;;;;;2603348;54;20808;31
2022/12/02 05:07:30;;;;;;;;;;;0.90;99.90;;;;;;2603389;54;19946;31
2022/12/02 05:10:04;;;;;;;;;;;0.90;99.90;;;;;;2603173;54;20767;31
2022/12/02 05:12:38;;;;;;;;;;;0.90;99.90;;;;;;2611356;46;19939;31
2022/12/02 05:15:16;;;;;;;;;;;0.90;99.90;;;;;;2622121;46;19935;31
2022/12/02 05:17:50;;;;;;;;;;;0.90;99.90;;;;;;2603516;54;20759;31
2022/12/02 05:20:24;;;;;;;;;;;0.80;99.90;;;;;;2603204;54;20651;31
2022/12/02 05:23:00;;;;;;;;;;;0.80;99.90;;;;;;2621982;47;20768;31
2022/12/02 05:25:35;;;;;;;;;;;0.80;99.90;;;;;;2603536;54;20007;31
2022/12/02 05:28:09;;;;;;;;;;;0.80;99.90;;;;;;2621718;47;19934;31
2022/12/02 05:30:46;;;;;;;;;;;0.80;99.90;;;;;;2621876;47;19935;31
2022/12/02 05:33:20;;;;;;;;;;;0.80;99.90;;;;;;2604433;47;19938;31
2022/12/02 05:35:54;;;;;;;;;;;0.80;99.90;;;;;;2608524;47;19947;31
2022/12/02 05:38:27;;;;;;;;;;;0.80;99.90;;;;;;2617237;47;19965;31
2022/12/02 05:41:00;;;;;;;;;;;0.80;99.90;;;;;;2603270;54;20702;31
2022/12/02 05:43:37;;;;;;;;;;;0.70;99.90;;;;;;2603300;54;19961;31
2022/12/02 05:46:16;;;;;;;;;;;0.70;99.90;;;;;;2611529;47;19961;31
2022/12/02 05:48:51;;;;;;;;;;;1.70;99.90;;;;;;2621522;47;20013;31
2022/12/02 05:51:27;;;;;;;;;;;0.70;99.90;;;;;;2621659;47;20021;31
2022/12/02 05:54:02;;;;;;;;;;;0.80;99.90;;;;;;2603304;54;19961;31
2022/12/02 05:56:36;;;;;;;;;;;0.70;99.90;;;;;;2621620;47;19957;31
2022/12/02 05:59:13;;;;;;;;;;;0.70;99.90;;;;;;2613104;47;19935;31
2022/12/02 06:01:51;;;;;;;;;;;0.70;99.90;;;;;;2622197;47;20016;31
2022/12/02 06:04:26;;;;;;;;;;;0.70;99.90;;;;;;2603886;54;20825;31
2022/12/02 06:07:01;;;;;;;;;;;0.70;99.90;;;;;;2608680;46;20880;31
2022/12/02 06:09:37;;;;;;;;;;;0.70;99.90;;;;;;2604199;54;19990;31
2022/12/02 06:12:12;;;;;;;;;;;0.70;99.90;;;;;;2603773;54;19941;31
2022/12/02 06:14:46;;;;;;;;;;;0.70;99.90;;;;;;2603917;54;19935;31
2022/12/02 06:17:24;;;;;;;;;;;0.70;99.90;;;;;;2604913;46;20043;31
2022/12/02 06:19:58;;;;;;;;;;;0.70;99.90;;;;;;2604129;54;19935;31
2022/12/02 06:22:34;;;;;;;;;;;0.70;99.90;;;;;;2604157;54;19977;31
2022/12/02 06:25:08;;;;;;;;;;;0.70;99.90;;;;;;2603881;54;20853;31
2022/12/02 06:27:42;;;;;;;;;;;0.70;99.90;;;;;;2622786;46;19939;31
2022/12/02 06:30:17;;;;;;;;;;;0.70;99.90;;;;;;2604098;54;19942;31
2022/12/02 06:33:00;;;;;;;;;;;0.70;99.90;;;;;;2613969;46;19941;31
2022/12/02 06:35:36;;;;;;;;;;;0.70;99.90;;;;;;2603782;54;21486;31
2022/12/02 06:38:12;;;;;;;;;;;0.70;99.90;;;;;;2604240;54;19938;31
2022/12/02 06:40:45;;;;;;;;;;;0.70;99.90;;;;;;2603916;54;20478;31
2022/12/02 06:43:21;;;;;;;;;;;0.70;99.90;;;;;;2604034;54;20711;31
2022/12/02 06:45:55;;;;;;;;;;;0.60;99.90;;;;;;2622396;46;19950;31
2022/12/02 06:48:32;;;;;;;;;;;0.60;99.90;;;;;;2620740;46;19934;31
2022/12/02 06:51:10;;;;;;;;;;;0.60;99.90;;;;;;2604168;54;20781;31
2022/12/02 06:53:44;;;;;;;;;;;0.60;99.90;;;;;;2603069;54;19993;31
2022/12/02 06:56:22;;;;;;;;;;;0.60;99.90;;;;;;2603868;54;19942;31
2022/12/02 06:58:59;;;;;;;;;;;0.60;99.90;;;;;;2622560;46;19934;31
2022/12/02 07:01:37;;;;;;;;;;;1.70;99.90;;;;;;2622332;46;19941;31
2022/12/02 07:04:10;;;;;;;;;;;0.90;99.90;;;;;;2702400;39;20409;31
2022/12/02 07:06:48;;;;;;;;;;;0.60;99.90;;;;;;2603966;54;19941;31
2022/12/02 07:09:23;;;;;;;;;;;1.60;99.90;;;;;;2702518;39;20429;31
2022/12/02 07:11:57;;;;;;;;;;;0.60;99.90;;;;;;2603689;54;20850;31
2022/12/02 07:14:35;;;;;;;;;;;0.60;99.90;;;;;;2603362;54;20813;31
2022/12/02 07:17:15;;;;;;;;;;;0.60;99.90;;;;;;2603677;54;20727;31
2022/12/02 07:19:50;;;;;;;;;;;0.60;99.90;;;;;;2622207;46;19971;31
2022/12/02 07:22:31;;;;;;;;;;;0.70;99.90;;;;;;2603727;54;19958;31
2022/12/02 07:25:20;;;;;;;;;;;0.60;99.90;;;;;;2606898;46;19941;31
2022/12/02 07:27:54;;;;;;;;;;;0.60;99.90;;;;;;2603831;54;19947;31
2022/12/02 07:30:30;;;;;;;;;;;0.60;99.90;;;;;;2603557;54;19935;31
2022/12/02 07:33:04;;;;;;;;;;;0.70;99.90;;;;;;2622374;46;19935;31
2022/12/02 07:35:38;;;;;;;;;;;0.70;99.90;;;;;;2603643;54;19943;31
2022/12/02 07:38:17;;;;;;;;;;;0.70;99.90;;;;;;2603751;54;20564;31
2022/12/02 07:41:12;;;;;;;;;;;0.70;99.90;;;;;;2603232;54;19957;31
2022/12/02 07:43:46;;;;;;;;;;;0.70;99.90;;;;;;2702131;39;20379;31
2022/12/02 07:46:22;;;;;;;;;;;0.70;99.90;;;;;;2603771;54;19935;31
2022/12/02 07:48:56;;;;;;;;;;;0.70;99.90;;;;;;2603550;54;19983;31
2022/12/02 07:51:30;;;;;;;;;;;0.70;99.90;;;;;;2603680;54;20021;31
2022/12/02 07:54:08;;;;;;;;;;;0.70;99.90;;;;;;2603600;54;19935;31
2022/12/02 07:56:41;;;;;;;;;;;0.70;99.90;;;;;;2603525;54;20561;31
2022/12/02 07:59:15;;;;;;;;;;;0.70;99.90;;;;;;2622265;46;19939;31
2022/12/02 08:01:50;;;;;;;;;;;0.70;99.90;;;;;;2621666;46;19961;31
2022/12/02 08:04:26;;;;;;;;;;;0.70;99.90;;;;;;2622214;46;20006;31
2022/12/02 08:07:00;;;;;;;;;;;0.70;99.90;;;;;;2622054;46;20013;31
2022/12/02 08:09:37;;;;;;;;;;;0.70;99.90;;;;;;2603493;54;19941;31
2022/12/02 08:12:11;;;;;;;;;;;0.70;99.90;;;;;;2603637;54;19935;31
2022/12/02 08:14:44;;;;;;;;;;;0.70;99.90;;;;;;2603396;54;19956;31
2022/12/02 08:17:18;;;;;;;;;;;0.70;99.90;;;;;;2603413;54;20084;31
2022/12/02 08:19:52;;;;;;;;;;;0.70;99.90;;;;;;2622058;46;20004;31
2022/12/02 08:22:26;;;;;;;;;;;0.70;99.90;;;;;;2603203;54;20805;31
2022/12/02 08:25:05;;;;;;;;;;;0.70;99.90;;;;;;2621804;46;20502;31
2022/12/02 08:27:39;;;;;;;;;;;0.70;99.90;;;;;;2720677;39;21340;31
2022/12/02 08:30:19;;;;;;;;;;;0.70;99.90;;;;;;2621993;46;19941;31
2022/12/02 08:32:53;;;;;;;;;;;0.80;99.90;;;;;;2701966;39;21360;31
2022/12/02 08:35:29;;;;;;;;;;;0.80;99.90;;;;;;2702045;39;20560;31
2022/12/02 08:38:05;;;;;;;;;;;0.70;99.90;;;;;;2603744;54;20692;31
2022/12/02 08:40:43;;;;;;;;;;;0.80;99.90;;;;;;2603590;54;19997;31
2022/12/02 08:43:17;;;;;;;;;;;0.80;99.90;;;;;;2702201;39;20484;31
2022/12/02 08:45:53;;;;;;;;;;;0.80;99.90;;;;;;2603592;54;19942;31
2022/12/02 08:48:28;;;;;;;;;;;0.80;99.90;;;;;;2621947;46;19935;31
2022/12/02 08:51:02;;;;;;;;;;;0.80;99.90;;;;;;2773487;31;21349;31
2022/12/02 08:53:38;;;;;;;;;;;0.80;99.90;;;;;;2621846;46;19935;31
2022/12/02 08:56:15;;;;;;;;;;;0.80;99.90;;;;;;2603557;54;19935;31
2022/12/02 08:58:49;;;;;;;;;;;0.80;99.90;;;;;;2603525;54;19993;31
2022/12/02 09:01:23;;;;;;;;;;;0.80;99.90;;;;;;2603249;54;21262;31
2022/12/02 09:03:58;;;;;;;;;;;0.80;99.90;;;;;;2621982;46;20724;31
2022/12/02 09:06:32;;;;;;;;;;;0.80;99.90;;;;;;2621757;46;19935;31
2022/12/02 09:09:10;;;;;;;;;;;0.70;99.90;;;;;;2621656;46;20750;31
2022/12/02 09:11:47;;;;;;;;;;;0.70;99.90;;;;;;2603256;54;20658;31
2022/12/02 09:14:23;;;;;;;;;;;0.70;99.90;;;;;;2622041;46;19939;31
2022/12/02 09:16:57;;;;;;;;;;;0.70;99.90;;;;;;2622185;46;19935;31
2022/12/02 09:19:31;;;;;;;;;;;0.70;99.90;;;;;;2603146;54;20791;31
2022/12/02 09:22:06;;;;;;;;;;;0.70;99.90;;;;;;2603369;54;19934;31
2022/12/02 09:24:44;;;;;;;;;;;0.70;99.90;;;;;;2622187;46;20762;31
2022/12/02 09:27:21;;;;;;;;;;;0.70;99.90;;;;;;2603267;54;19934;31
2022/12/02 09:29:56;;;;;;;;;;;0.70;99.90;;;;;;2621866;47;20750;31
2022/12/02 09:32:32;;;;;;;;;;;0.70;99.90;;;;;;2603422;54;20768;31
2022/12/02 09:35:06;;;;;;;;;;;0.70;99.90;;;;;;2602406;54;19943;31
2022/12/02 09:37:40;;;;;;;;;;;0.70;99.90;;;;;;2603831;54;20749;31
2022/12/02 09:40:14;;;;;;;;;;;0.70;99.90;;;;;;2622476;46;20003;31
2022/12/02 09:42:51;;;;;;;;;;;0.70;99.90;;;;;;2622455;46;19935;31
2022/12/02 09:45:25;;;;;;;;;;;0.70;99.90;;;;;;2604100;54;20005;31
2022/12/02 09:47:59;;;;;;;;;;;0.70;99.90;;;;;;2604243;54;20773;31
2022/12/02 09:50:35;;;;;;;;;;;0.70;99.90;;;;;;2604007;54;20473;31
2022/12/02 09:53:09;;;;;;;;;;;0.70;99.90;;;;;;2622818;46;19935;31
2022/12/02 09:55:43;;;;;;;;;;;0.70;99.90;;;;;;2622816;46;20718;31
2022/12/02 09:58:20;;;;;;;;;;;0.70;99.90;;;;;;2622884;46;20764;31
2022/12/02 10:00:54;;;;;;;;;;;0.70;99.90;;;;;;2604041;54;20803;31
2022/12/02 10:03:30;;;;;;;;;;;0.70;99.90;;;;;;2603776;54;20752;31
2022/12/02 10:06:06;;;;;;;;;;;0.70;99.90;;;;;;2603952;54;20746;31
2022/12/02 10:08:42;;;;;;;;;;;0.70;99.90;;;;;;2604009;54;19938;31
2022/12/02 10:11:19;;;;;;;;;;;0.70;99.90;;;;;;2622420;46;19993;31
2022/12/02 10:13:56;;;;;;;;;;;0.70;99.90;;;;;;2622475;46;19935;31
2022/12/02 10:16:29;;;;;;;;;;;0.60;99.90;;;;;;2603843;54;19941;31
2022/12/02 10:19:05;;;;;;;;;;;0.60;99.90;;;;;;2603781;54;19935;31
2022/12/02 10:21:41;;;;;;;;;;;0.60;99.90;;;;;;2714972;39;20412;31
2022/12/02 10:24:15;;;;;;;;;;;0.60;99.90;;;;;;2603813;54;19946;31
2022/12/02 10:26:50;;;;;;;;;;;0.60;99.90;;;;;;2604032;54;20815;31
2022/12/02 10:29:31;;;;;;;;;;;0.60;99.90;;;;;;2603856;54;19942;31
2022/12/02 10:32:06;;;;;;;;;;;0.60;99.90;;;;;;2604138;54;20571;31
2022/12/02 10:34:42;;;;;;;;;;;0.70;99.90;;;;;;2603825;54;19947;31
2022/12/02 10:37:17;;;;;;;;;;;0.60;99.90;;;;;;2604006;54;19941;31
2022/12/02 10:39:51;;;;;;;;;;;0.70;99.90;;;;;;2603944;54;19934;31
2022/12/02 10:42:26;;;;;;;;;;;0.70;99.90;;;;;;2622498;46;19941;31
2022/12/02 10:45:12;;;;;;;;;;;0.70;99.90;;;;;;2622249;46;19943;31
2022/12/02 10:47:47;;;;;;;;;;;0.70;99.90;;;;;;2603841;54;19961;31
2022/12/02 10:50:22;;;;;;;;;;;0.60;99.90;;;;;;2603805;54;19934;31
2022/12/02 10:52:57;;;;;;;;;;;0.60;99.90;;;;;;2603829;54;20016;31
2022/12/02 10:55:32;;;;;;;;;;;0.70;99.90;;;;;;2604129;54;20629;31
2022/12/02 10:58:12;;;;;;;;;;;1.30;99.90;;;;;;2603680;54;19941;31
2022/12/02 11:00:49;;;;;;;;;;;0.70;99.90;;;;;;2622339;46;19935;31
2022/12/02 11:03:23;;;;;;;;;;;0.70;99.90;;;;;;2603935;54;20458;31
2022/12/02 11:05:59;;;;;;;;;;;0.70;99.90;;;;;;2602965;54;19947;31
2022/12/02 11:08:38;;;;;;;;;;;0.70;99.90;;;;;;2603614;54;20793;31
2022/12/02 11:11:13;;;;;;;;;;;0.70;99.90;;;;;;2622381;46;19939;31
2022/12/02 11:13:51;;;;;;;;;;;0.70;99.90;;;;;;2603829;54;19942;31
2022/12/02 11:16:42;;;;;;;;;;;0.70;99.90;;;;;;2603743;54;20720;31
2022/12/02 11:19:42;;;;;;;;;;;0.70;99.90;;;;;;2603591;54;20034;31
2022/12/02 11:22:31;;;;;;;;;;;0.70;99.90;;;;;;2622199;46;20461;31
2022/12/02 11:25:05;;;;;;;;;;;0.60;99.90;;;;;;2603991;54;20737;31
2022/12/02 11:27:39;;;;;;;;;;;0.60;99.90;;;;;;2603675;54;19939;31
2022/12/02 11:30:28;;;;;;;;;;;0.60;99.90;;;;;;2603771;54;21273;31
2022/12/02 11:33:02;;;;;;;;;;;0.60;99.90;;;;;;2603990;54;20017;31
2022/12/02 11:35:51;;;;;;;;;;;0.60;99.90;;;;;;2603669;54;20519;31
2022/12/02 11:38:28;;;;;;;;;;;0.60;99.90;;;;;;2604008;54;19941;31
2022/12/02 11:41:09;;;;;;;;;;;0.60;99.90;;;;;;2603711;54;20746;31
2022/12/02 11:43:56;;;;;;;;;;;0.60;99.90;;;;;;2603525;54;21349;31
2022/12/02 11:46:41;;;;;;;;;;;0.60;99.90;;;;;;2603597;54;20799;31
2022/12/02 11:49:24;;;;;;;;;;;0.60;99.90;;;;;;2603884;54;19935;31
2022/12/02 11:52:06;;;;;;;;;;;0.50;99.90;;;;;;2603577;54;19941;31
2022/12/02 11:54:44;;;;;;;;;;;0.50;99.90;;;;;;2622468;46;21273;31
2022/12/02 11:57:20;;;;;;;;;;;0.50;99.90;;;;;;2622231;46;19946;31
2022/12/02 11:59:54;;;;;;;;;;;0.50;99.90;;;;;;2602987;54;19997;31
2022/12/02 12:02:29;;;;;;;;;;;0.50;99.90;;;;;;2602322;54;20794;31
2022/12/02 12:05:05;;;;;;;;;;;0.50;99.90;;;;;;2603528;54;19935;31
2022/12/02 12:07:47;;;;;;;;;;;0.60;99.90;;;;;;2622288;46;19959;31
2022/12/02 12:10:41;;;;;;;;;;;0.50;99.90;;;;;;2603384;54;20801;31
2022/12/02 12:13:21;;;;;;;;;;;0.50;99.90;;;;;;2603380;54;20038;31
2022/12/02 12:15:56;;;;;;;;;;;0.50;99.90;;;;;;2622114;46;19940;31
2022/12/02 12:18:40;;;;;;;;;;;0.40;99.90;;;;;;2603451;54;20013;31
2022/12/02 12:21:14;;;;;;;;;;;0.40;99.90;;;;;;2603423;54;19990;31
2022/12/02 12:23:50;;;;;;;;;;;0.40;99.90;;;;;;2603555;54;19935;31
2022/12/02 12:26:32;;;;;;;;;;;0.40;99.90;;;;;;2603698;54;19934;31
2022/12/02 12:29:09;;;;;;;;;;;0.40;99.90;;;;;;2603541;54;20689;31
2022/12/02 12:31:43;;;;;;;;;;;0.30;99.90;;;;;;2602635;54;19992;31
2022/12/02 12:34:20;;;;;;;;;;;0.30;99.90;;;;;;2621178;46;20782;31
2022/12/02 12:36:54;;;;;;;;;;;0.30;99.90;;;;;;2720342;39;20481;31
2022/12/02 12:39:29;;;;;;;;;;;0.30;99.90;;;;;;2603797;54;19946;31
2022/12/02 12:42:03;;;;;;;;;;;0.30;99.90;;;;;;2621982;46;20048;31
2022/12/02 12:44:40;;;;;;;;;;;0.30;99.90;;;;;;2621977;46;20769;31
2022/12/02 12:47:13;;;;;;;;;;;0.30;99.90;;;;;;2603699;54;19935;31
2022/12/02 12:49:48;;;;;;;;;;;0.30;99.90;;;;;;2603404;54;19941;31
2022/12/02 12:52:26;;;;;;;;;;;0.30;99.90;;;;;;2603713;54;20777;31
2022/12/02 12:55:01;;;;;;;;;;;0.30;99.90;;;;;;2701759;39;21324;31
2022/12/02 12:57:35;;;;;;;;;;;0.30;99.90;;;;;;2603116;54;20809;31
2022/12/02 13:00:14;;;;;;;;;;;0.30;99.90;;;;;;2603458;54;19935;31
2022/12/02 13:02:50;;;;;;;;;;;0.30;99.90;;;;;;2603313;54;20770;31
2022/12/02 13:05:25;;;;;;;;;;;0.30;99.90;;;;;;2603384;54;19946;31
2022/12/02 13:08:00;;;;;;;;;;;0.30;99.90;;;;;;2622092;46;19941;31
2022/12/02 13:10:34;;;;;;;;;;;0.30;99.90;;;;;;2622137;46;20039;31
2022/12/02 13:13:10;;;;;;;;;;;0.30;99.90;;;;;;2603404;54;20021;31
2022/12/02 13:15:47;;;;;;;;;;;0.30;99.90;;;;;;2603369;54;19942;31
2022/12/02 13:18:22;;;;;;;;;;;0.30;99.90;;;;;;2603398;54;20784;31
2022/12/02 13:20:56;;;;;;;;;;;0.30;99.90;;;;;;2603339;54;19957;31
2022/12/02 13:23:30;;;;;;;;;;;0.30;99.90;;;;;;2603615;54;19934;31
2022/12/02 13:26:07;;;;;;;;;;;0.30;99.90;;;;;;2621753;47;20845;31
2022/12/02 13:28:46;;;;;;;;;;;0.30;99.90;;;;;;2603115;54;22305;31
2022/12/02 13:31:24;;;;;;;;;;;0.20;99.90;;;;;;2603184;54;20698;31
2022/12/02 13:33:59;;;;;;;;;;;0.20;99.90;;;;;;2603228;54;20544;31
2022/12/02 13:36:34;;;;;;;;;;;0.30;99.90;;;;;;2603401;54;19934;31
2022/12/02 13:39:10;;;;;;;;;;;0.20;99.90;;;;;;2701592;39;20494;31
2022/12/02 13:41:45;;;;;;;;;;;0.20;99.90;;;;;;2701711;39;20414;31
2022/12/02 13:44:21;;;;;;;;;;;0.20;99.90;;;;;;2603206;54;19935;31
2022/12/02 13:46:58;;;;;;;;;;;0.20;99.90;;;;;;2603039;54;19935;31
2022/12/02 13:49:33;;;;;;;;;;;0.20;99.90;;;;;;2621681;47;20458;31
2022/12/02 13:52:09;;;;;;;;;;;0.80;99.90;;;;;;2621359;47;20749;31
2022/12/02 13:54:45;;;;;;;;;;;0.20;99.90;;;;;;2603229;54;20498;31
2022/12/02 13:57:20;;;;;;;;;;;0.20;99.90;;;;;;2603137;54;20846;31
2022/12/02 13:59:54;;;;;;;;;;;0.20;99.90;;;;;;2603306;54;19941;31
2022/12/02 14:02:32;;;;;;;;;;;0.10;99.90;;;;;;2701473;39;20381;31
2022/12/02 14:05:06;;;;;;;;;;;0.30;99.90;;;;;;2621355;47;20725;31
2022/12/02 14:07:41;;;;;;;;;;;0.30;99.90;;;;;;2603033;54;19958;31
2022/12/02 14:10:17;;;;;;;;;;;0.40;99.90;;;;;;2621539;47;20624;31
2022/12/02 14:12:52;;;;;;;;;;;0.40;99.90;;;;;;2603134;54;20497;31
2022/12/02 14:15:28;;;;;;;;;;;0.40;99.90;;;;;;2603130;54;20532;31
2022/12/02 14:18:12;;;;;;;;;;;0.40;99.90;;;;;;2603223;54;19965;31
2022/12/02 14:20:45;;;;;;;;;;;0.30;99.90;;;;;;2603119;54;20784;31
2022/12/02 14:23:20;;;;;;;;;;;0.30;99.90;;;;;;2603900;54;20470;31
2022/12/02 14:25:55;;;;;;;;;;;0.30;99.90;;;;;;2604054;54;19946;31
2022/12/02 14:28:29;;;;;;;;;;;0.20;99.90;;;;;;2603818;54;20811;31
2022/12/02 14:31:04;;;;;;;;;;;0.20;99.90;;;;;;2622535;46;20759;31
2022/12/02 14:33:54;;;;;;;;;;;0.20;99.90;;;;;;2603858;54;20493;31
2022/12/02 14:36:46;;;;;;;;;;;0.20;99.90;;;;;;2603944;54;20769;31
2022/12/02 14:39:20;;;;;;;;;;;0.10;99.90;;;;;;2701763;39;20392;31
2022/12/02 14:41:54;;;;;;;;;;;0.10;99.90;;;;;;2621358;46;19941;31
2022/12/02 14:44:28;;;;;;;;;;;0.10;99.90;;;;;;2603730;54;19993;31
2022/12/02 14:47:02;;;;;;;;;;;0.10;99.90;;;;;;2622650;46;19939;31
2022/12/02 14:49:40;;;;;;;;;;;0.00;99.90;;;;;;2702553;39;20433;31
2022/12/02 14:52:15;;;;;;;;;;;0.00;99.90;;;;;;2622381;46;19941;31
2022/12/02 14:54:49;;;;;;;;;;;0.00;99.90;;;;;;2603794;54;19934;31
2022/12/02 14:57:25;;;;;;;;;;;0.00;99.90;;;;;;2603689;54;20779;31
2022/12/02 14:59:59;;;;;;;;;;;0.00;99.90;;;;;;2603813;54;21534;31
2022/12/02 15:02:33;;;;;;;;;;;0.00;99.90;;;;;;2603926;54;19946;31
2022/12/02 15:05:12;;;;;;;;;;;-0.10;99.90;;;;;;2603857;54;20466;31
2022/12/02 15:07:49;;;;;;;;;;;-0.10;99.90;;;;;;2603669;54;20685;31
2022/12/02 15:10:23;;;;;;;;;;;-0.10;99.90;;;;;;2603855;54;19961;31
2022/12/02 15:12:58;;;;;;;;;;;-0.10;99.90;;;;;;2713751;39;20457;31
2022/12/02 15:15:33;;;;;;;;;;;-0.10;99.90;;;;;;2603722;54;20710;31
2022/12/02 15:18:11;;;;;;;;;;;-0.20;99.90;;;;;;2622291;46;19943;31
2022/12/02 15:20:49;;;;;;;;;;;-0.20;99.90;;;;;;2621667;46;20061;31
2022/12/02 15:23:23;;;;;;;;;;;-0.20;99.90;;;;;;2603636;54;20799;31
2022/12/02 15:25:56;;;;;;;;;;;-0.20;99.90;;;;;;2622038;46;19941;31
2022/12/02 15:28:32;;;;;;;;;;;-0.20;99.90;;;;;;2603690;54;20025;31
2022/12/02 15:31:06;;;;;;;;;;;-0.10;99.90;;;;;;2622192;46;19947;31
2022/12/02 15:33:41;;;;;;;;;;;-0.10;99.90;;;;;;2603482;54;20001;31
2022/12/02 15:36:18;;;;;;;;;;;-0.10;99.90;;;;;;2603644;54;19960;31
2022/12/02 15:38:52;;;;;;;;;;;-0.10;99.90;;;;;;2622287;46;20829;31